createdAt,value
2023-03-29T00:02:14.352Z,5.50
2023-03-29T00:05:02.185Z,5.40
2023-03-29T00:07:53.991Z,5.30
2023-03-29T00:10:41.912Z,5.10
2023-03-29T00:13:29.039Z,5.10
2023-03-29T00:16:15.177Z,5.10
2023-03-29T00:19:01.552Z,5.00
2023-03-29T00:21:48.053Z,4.90
2023-03-29T00:24:34.282Z,4.90
2023-03-29T00:27:23.360Z,4.90
2023-03-29T00:30:10.729Z,4.90
2023-03-29T00:32:57.203Z,4.90
2023-03-29T00:35:43.317Z,4.90
2023-03-29T00:38:29.463Z,4.80
2023-03-29T00:41:15.975Z,4.80
2023-03-29T00:44:04.783Z,4.80
2023-03-29T00:46:50.821Z,4.80
2023-03-29T00:49:37.791Z,4.80
2023-03-29T00:52:24.408Z,4.90
2023-03-29T00:55:15.779Z,5.00
2023-03-29T00:58:04.601Z,5.00
2023-03-29T01:00:57.864Z,5.10
2023-03-29T01:03:54.770Z,5.10
2023-03-29T01:06:43.566Z,5.10
2023-03-29T01:09:33.046Z,5.10
2023-03-29T01:12:27.732Z,5.20
2023-03-29T01:15:19.770Z,5.10
2023-03-29T01:18:08.761Z,4.90
2023-03-29T01:21:24.491Z,4.90
2023-03-29T01:24:30.303Z,4.80
2023-03-29T01:27:22.718Z,4.70
2023-03-29T01:30:14.301Z,4.60
2023-03-29T01:33:06.331Z,4.50
2023-03-29T01:36:21.108Z,4.50
2023-03-29T01:39:08.290Z,4.40
2023-03-29T01:42:00.655Z,4.40
2023-03-29T01:44:58.685Z,4.40
2023-03-29T01:47:47.881Z,4.30
2023-03-29T01:50:46.303Z,4.30
2023-03-29T01:53:42.354Z,4.40
2023-03-29T01:56:31.362Z,4.40
2023-03-29T01:59:22.816Z,4.50
2023-03-29T02:02:14.788Z,4.50
2023-03-29T02:05:01.763Z,4.50
2023-03-29T02:07:48.644Z,4.50
2023-03-29T02:10:36.737Z,4.50
2023-03-29T02:13:23.192Z,4.50
2023-03-29T02:16:12.490Z,4.50
2023-03-29T02:18:59.279Z,4.50
2023-03-29T02:22:02.218Z,4.60
2023-03-29T02:24:50.090Z,4.50
2023-03-29T02:27:37.912Z,4.50
2023-03-29T02:30:28.198Z,4.50
2023-03-29T02:33:21.837Z,4.40
2023-03-29T02:36:20.915Z,4.50
2023-03-29T02:39:10.237Z,4.50
2023-03-29T02:41:57.101Z,4.50
2023-03-29T02:44:45.037Z,4.60
2023-03-29T02:47:37.169Z,4.60
2023-03-29T02:50:27.704Z,4.60
2023-03-29T02:53:29.062Z,4.70
2023-03-29T02:56:14.948Z,4.70
2023-03-29T02:59:00.980Z,4.60
2023-03-29T03:01:47.040Z,4.70
2023-03-29T03:04:35.518Z,4.80
2023-03-29T03:07:21.817Z,4.90
2023-03-29T03:10:10.214Z,5.00
2023-03-29T03:12:57.305Z,4.90
2023-03-29T03:15:44.338Z,4.90
2023-03-29T03:18:30.548Z,4.90
2023-03-29T03:21:18.692Z,4.90
2023-03-29T03:24:06.309Z,4.90
2023-03-29T03:26:53.296Z,4.90
2023-03-29T03:29:39.476Z,4.80
2023-03-29T03:32:49.965Z,4.80
2023-03-29T03:36:06.311Z,4.80
2023-03-29T03:38:55.043Z,4.80
2023-03-29T03:41:41.527Z,4.80
2023-03-29T03:44:28.023Z,4.70
2023-03-29T03:47:31.050Z,4.70
2023-03-29T03:50:30.776Z,4.60
2023-03-29T03:53:18.096Z,4.60
2023-03-29T03:56:42.363Z,4.50
2023-03-29T03:59:28.746Z,4.50
2023-03-29T04:02:21.041Z,4.30
2023-03-29T04:05:08.719Z,4.30
2023-03-29T04:07:57.919Z,4.20
2023-03-29T04:11:10.631Z,4.20
2023-03-29T04:14:01.675Z,4.10
2023-03-29T04:17:08.164Z,4.10
2023-03-29T04:20:12.298Z,4.20
2023-03-29T04:22:59.924Z,4.30
2023-03-29T04:25:47.504Z,4.30
2023-03-29T04:28:53.653Z,4.40
2023-03-29T04:31:47.245Z,4.40
2023-03-29T04:35:04.785Z,4.50
2023-03-29T04:37:52.527Z,4.60
2023-03-29T04:40:40.816Z,4.70
2023-03-29T04:43:46.684Z,4.60
2023-03-29T04:46:42.946Z,4.60
2023-03-29T04:49:29.380Z,4.70
2023-03-29T04:52:15.911Z,4.60
2023-03-29T04:55:05.215Z,4.70
2023-03-29T04:58:00.500Z,4.70
2023-03-29T05:01:00.004Z,4.80
2023-03-29T05:03:55.355Z,4.80
2023-03-29T05:06:47.225Z,4.80
2023-03-29T05:09:35.464Z,4.90
2023-03-29T05:12:22.928Z,5.00
2023-03-29T05:15:13.461Z,5.10
2023-03-29T05:18:00.844Z,5.10
2023-03-29T05:20:50.795Z,5.20
2023-03-29T05:23:38.310Z,5.20
2023-03-29T05:26:51.780Z,5.30
2023-03-29T05:29:38.275Z,5.40
2023-03-29T05:32:42.807Z,5.50
2023-03-29T05:35:32.098Z,5.60
2023-03-29T05:38:23.331Z,5.80
2023-03-29T05:41:15.965Z,5.90
2023-03-29T05:44:41.397Z,6.00
2023-03-29T05:47:36.077Z,6.10
2023-03-29T05:50:22.108Z,6.20
2023-03-29T05:53:08.670Z,6.30
2023-03-29T05:55:55.527Z,6.40
2023-03-29T05:58:44.083Z,6.50
2023-03-29T06:01:30.739Z,6.50
2023-03-29T06:04:24.529Z,6.60
2023-03-29T06:07:32.060Z,6.60
2023-03-29T06:10:33.364Z,6.60
2023-03-29T06:13:34.698Z,6.70
2023-03-29T06:16:20.931Z,6.70
2023-03-29T06:19:07.420Z,6.70
2023-03-29T06:21:54.912Z,6.70
2023-03-29T06:24:44.728Z,6.80
2023-03-29T06:27:41.763Z,6.80
2023-03-29T06:30:28.872Z,6.80
2023-03-29T06:33:20.514Z,6.80
2023-03-29T06:36:20.384Z,6.90
2023-03-29T06:39:06.692Z,7.00
2023-03-29T06:42:20.519Z,7.10
2023-03-29T06:45:30.795Z,7.30
2023-03-29T06:48:19.316Z,7.40
2023-03-29T06:51:07.585Z,7.60
2023-03-29T06:53:54.071Z,7.80
2023-03-29T06:56:40.296Z,8.00
2023-03-29T06:59:32.196Z,8.20
2023-03-29T07:02:29.060Z,8.30
2023-03-29T07:05:42.048Z,8.20
2023-03-29T07:08:32.645Z,8.20
2023-03-29T07:11:22.243Z,8.10
2023-03-29T07:14:14.843Z,8.20
2023-03-29T07:17:01.165Z,8.20
2023-03-29T07:19:57.757Z,8.30
2023-03-29T07:23:08.109Z,8.40
2023-03-29T07:25:54.118Z,8.60
2023-03-29T07:28:40.405Z,8.70
2023-03-29T07:31:28.547Z,8.80
2023-03-29T07:34:24.478Z,9.00
2023-03-29T07:37:11.109Z,9.10
2023-03-29T07:40:00.516Z,9.30
2023-03-29T07:42:57.148Z,9.40
2023-03-29T07:45:44.734Z,9.50
2023-03-29T07:48:32.964Z,9.60
2023-03-29T07:51:24.349Z,9.70
2023-03-29T07:54:27.132Z,9.70
2023-03-29T07:57:36.692Z,9.70
2023-03-29T08:00:25.040Z,9.60
2023-03-29T08:03:34.192Z,9.60
2023-03-29T08:06:21.623Z,9.50
2023-03-29T08:09:09.204Z,9.50
2023-03-29T08:11:57.519Z,9.50
2023-03-29T08:14:49.132Z,9.70
2023-03-29T08:17:42.462Z,9.80
2023-03-29T08:20:28.856Z,9.90
2023-03-29T08:23:21.217Z,9.90
2023-03-29T08:26:39.863Z,9.80
2023-03-29T08:29:27.542Z,9.60
2023-03-29T08:32:14.244Z,9.60
2023-03-29T08:35:04.449Z,9.60
2023-03-29T08:37:56.312Z,9.60
2023-03-29T08:40:42.391Z,9.60
2023-03-29T08:44:11.346Z,9.70
2023-03-29T08:47:34.267Z,9.80
2023-03-29T08:50:24.853Z,9.80
2023-03-29T08:53:18.926Z,9.90
2023-03-29T08:56:34.015Z,9.90
2023-03-29T08:59:41.699Z,10.20
2023-03-29T09:02:34.432Z,10.60
2023-03-29T09:05:25.746Z,11.20
2023-03-29T09:08:47.934Z,11.60
2023-03-29T09:11:47.008Z,11.60
2023-03-29T09:14:43.954Z,11.40
2023-03-29T09:17:56.503Z,11.20
2023-03-29T09:20:46.352Z,11.10
2023-03-29T09:23:41.388Z,11.20
2023-03-29T09:26:45.645Z,11.60
2023-03-29T09:30:12.553Z,12.00
2023-03-29T09:33:18.240Z,12.10
2023-03-29T09:36:52.545Z,12.10
2023-03-29T09:39:40.128Z,11.90
2023-03-29T09:42:31.343Z,11.70
2023-03-29T09:45:17.905Z,11.60
2023-03-29T09:48:17.068Z,11.60
2023-03-29T09:51:10.710Z,11.60
2023-03-29T09:54:00.213Z,11.40
2023-03-29T09:57:05.228Z,11.30
2023-03-29T09:59:52.593Z,11.30
2023-03-29T10:02:39.224Z,11.50
2023-03-29T10:05:26.337Z,11.60
2023-03-29T10:08:27.042Z,11.90
2023-03-29T10:11:30.860Z,12.10
2023-03-29T10:14:38.216Z,12.40
2023-03-29T10:17:28.068Z,12.60
2023-03-29T10:20:18.542Z,13.10
2023-03-29T10:23:08.078Z,13.50
2023-03-29T10:25:54.225Z,13.80
2023-03-29T10:28:40.646Z,13.90
2023-03-29T10:31:31.495Z,14.00
2023-03-29T10:34:18.938Z,13.90
2023-03-29T10:37:06.248Z,13.80
2023-03-29T10:39:54.461Z,13.90
2023-03-29T10:42:49.876Z,13.80
2023-03-29T10:45:38.769Z,13.70
2023-03-29T10:48:30.132Z,13.40
2023-03-29T10:51:18.873Z,13.30
2023-03-29T10:54:13.176Z,13.40
2023-03-29T10:57:06.999Z,13.40
2023-03-29T11:00:23.652Z,13.60
2023-03-29T11:03:43.356Z,13.80
2023-03-29T11:06:35.120Z,13.80
2023-03-29T11:09:39.677Z,14.00
2023-03-29T11:12:53.732Z,14.10
2023-03-29T11:15:58.250Z,14.20
2023-03-29T11:18:47.345Z,14.10
2023-03-29T11:21:56.080Z,14.10
2023-03-29T11:25:10.074Z,14.10
2023-03-29T11:28:25.461Z,14.30
2023-03-29T11:31:30.579Z,14.20
2023-03-29T11:34:29.596Z,14.20
2023-03-29T11:37:15.975Z,14.10
2023-03-29T11:40:39.326Z,14.10
2023-03-29T11:43:35.974Z,14.10
2023-03-29T11:47:02.219Z,14.00
2023-03-29T11:50:15.529Z,14.30
2023-03-29T11:53:08.845Z,14.50
2023-03-29T11:55:56.453Z,14.50
2023-03-29T11:58:47.634Z,14.60
2023-03-29T12:01:48.797Z,14.70
2023-03-29T12:04:41.481Z,14.60
2023-03-29T12:07:35.979Z,14.70
2023-03-29T12:10:27.372Z,14.70
2023-03-29T12:13:30.542Z,14.80
2023-03-29T12:16:41.954Z,15.00
2023-03-29T12:19:43.461Z,15.20
2023-03-29T12:22:30.034Z,15.30
2023-03-29T12:25:20.214Z,15.10
2023-03-29T12:28:46.082Z,15.10
2023-03-29T12:31:51.185Z,15.20
2023-03-29T12:35:10.684Z,15.20
2023-03-29T12:38:30.551Z,15.00
2023-03-29T12:41:37.873Z,14.60
2023-03-29T12:44:49.004Z,14.30
2023-03-29T12:47:46.137Z,14.20
2023-03-29T12:50:37.265Z,14.20
2023-03-29T12:53:27.405Z,14.30
2023-03-29T12:56:20.854Z,14.60
2023-03-29T12:59:28.374Z,14.80
2023-03-29T13:02:14.894Z,15.00
2023-03-29T13:05:01.552Z,15.10
2023-03-29T13:07:47.827Z,15.10
2023-03-29T13:10:42.003Z,15.10
2023-03-29T13:13:32.884Z,15.20
2023-03-29T13:16:28.302Z,15.30
2023-03-29T13:19:41.853Z,15.50
2023-03-29T13:22:44.295Z,16.10
2023-03-29T13:25:52.184Z,16.90
2023-03-29T13:29:22.476Z,17.80
2023-03-29T13:32:50.665Z,18.60
2023-03-29T13:36:09.420Z,19.70
2023-03-29T13:38:55.923Z,20.70
2023-03-29T13:41:41.898Z,21.10
2023-03-29T13:44:46.158Z,21.00
2023-03-29T13:47:32.787Z,20.30
2023-03-29T13:50:29.203Z,20.10
2023-03-29T13:53:29.957Z,20.00
2023-03-29T13:56:23.114Z,19.70
2023-03-29T13:59:33.532Z,19.20
2023-03-29T14:02:42.140Z,18.80
2023-03-29T14:05:35.319Z,18.20
2023-03-29T14:08:32.410Z,17.60
2023-03-29T14:11:29.036Z,16.80
2023-03-29T14:14:16.629Z,16.50
2023-03-29T14:17:03.965Z,16.40
2023-03-29T14:19:51.105Z,16.20
2023-03-29T14:22:37.855Z,16.10
2023-03-29T14:25:24.337Z,16.20
2023-03-29T14:28:21.773Z,16.40
2023-03-29T14:31:21.386Z,16.50
2023-03-29T14:34:16.191Z,16.50
2023-03-29T14:37:02.386Z,16.60
2023-03-29T14:39:49.470Z,16.70
2023-03-29T14:42:38.095Z,16.60
2023-03-29T14:45:24.572Z,16.50
2023-03-29T14:48:13.271Z,16.20
2023-03-29T14:51:00.600Z,16.10
2023-03-29T14:53:48.230Z,15.90
2023-03-29T14:56:34.805Z,15.70
2023-03-29T14:59:44.478Z,15.40
2023-03-29T15:02:33.292Z,15.10
2023-03-29T15:05:39.935Z,15.00
2023-03-29T15:08:34.508Z,14.80
2023-03-29T15:11:23.780Z,14.60
2023-03-29T15:14:16.543Z,14.50
2023-03-29T15:17:23.408Z,14.40
2023-03-29T15:20:17.484Z,14.40
2023-03-29T15:23:16.420Z,14.30
2023-03-29T15:26:12.349Z,14.20
2023-03-29T15:29:23.439Z,14.10
2023-03-29T15:32:19.425Z,14.00
2023-03-29T15:35:09.284Z,13.70
2023-03-29T15:37:55.647Z,13.50
2023-03-29T15:40:41.898Z,13.30
2023-03-29T15:43:28.003Z,13.00
2023-03-29T15:46:14.298Z,12.90
2023-03-29T15:49:00.498Z,12.80
2023-03-29T15:51:46.971Z,12.80
2023-03-29T15:54:33.815Z,12.80
2023-03-29T15:57:20.418Z,12.90
2023-03-29T16:00:08.012Z,12.90
2023-03-29T16:02:58.682Z,12.90
2023-03-29T16:05:46.043Z,12.80
2023-03-29T16:08:32.390Z,12.90
2023-03-29T16:11:18.611Z,12.90
2023-03-29T16:14:27.755Z,12.90
2023-03-29T16:17:14.128Z,12.90
2023-03-29T16:20:00.272Z,13.00
2023-03-29T16:22:48.148Z,13.00
2023-03-29T16:25:36.743Z,13.00
2023-03-29T16:28:22.869Z,12.90
2023-03-29T16:31:13.176Z,12.90
2023-03-29T16:34:02.494Z,12.90
2023-03-29T16:36:49.588Z,12.90
2023-03-29T16:39:35.921Z,12.70
2023-03-29T16:42:22.244Z,12.70
2023-03-29T16:45:15.515Z,12.60
2023-03-29T16:48:01.723Z,12.50
2023-03-29T16:50:50.726Z,12.40
2023-03-29T16:53:36.961Z,12.40
2023-03-29T16:56:23.821Z,12.30
2023-03-29T16:59:10.469Z,12.30
2023-03-29T17:01:56.618Z,12.20
2023-03-29T17:04:42.876Z,12.20
2023-03-29T17:07:29.695Z,12.20
2023-03-29T17:10:16.074Z,12.20
2023-03-29T17:13:02.044Z,12.20
2023-03-29T17:15:52.928Z,12.30
2023-03-29T17:18:39.104Z,12.30
2023-03-29T17:21:25.440Z,12.30
2023-03-29T17:24:11.887Z,12.20
2023-03-29T17:26:58.215Z,12.20
2023-03-29T17:29:44.436Z,12.20
2023-03-29T17:32:31.460Z,12.20
2023-03-29T17:35:20.698Z,12.20
2023-03-29T17:38:06.781Z,12.10
2023-03-29T17:40:53.994Z,12.10
2023-03-29T17:43:40.547Z,12.00
2023-03-29T17:46:26.949Z,12.00
2023-03-29T17:49:14.141Z,12.00
2023-03-29T17:52:00.845Z,12.10
2023-03-29T17:54:47.232Z,12.10
2023-03-29T17:57:33.580Z,12.10
2023-03-29T18:00:20.102Z,12.00
2023-03-29T18:03:06.289Z,12.00
2023-03-29T18:05:54.240Z,11.90
2023-03-29T18:08:41.538Z,11.80
2023-03-29T18:11:28.426Z,11.80
2023-03-29T18:14:14.739Z,11.70
2023-03-29T18:17:01.247Z,11.80
2023-03-29T18:19:47.298Z,11.80
2023-03-29T18:22:34.205Z,11.80
2023-03-29T18:25:20.323Z,11.70
2023-03-29T18:28:06.592Z,11.80
2023-03-29T18:30:52.839Z,11.80
2023-03-29T18:33:39.186Z,11.90
2023-03-29T18:36:25.772Z,11.80
2023-03-29T18:39:13.596Z,11.80
2023-03-29T18:42:00.771Z,11.80
2023-03-29T18:44:47.045Z,11.80
2023-03-29T18:47:33.771Z,11.80
2023-03-29T18:50:20.050Z,11.80
2023-03-29T18:53:05.939Z,11.80
2023-03-29T18:55:52.440Z,11.70
2023-03-29T18:58:38.706Z,11.80
2023-03-29T19:01:24.669Z,11.80
2023-03-29T19:04:11.051Z,11.70
2023-03-29T19:06:57.237Z,11.70
2023-03-29T19:09:43.694Z,11.60
2023-03-29T19:12:30.523Z,11.60
2023-03-29T19:15:17.086Z,11.60
2023-03-29T19:18:03.297Z,11.50
2023-03-29T19:20:54.059Z,11.50
2023-03-29T19:23:40.236Z,11.60
2023-03-29T19:26:28.578Z,11.60
2023-03-29T19:29:14.991Z,11.70
2023-03-29T19:32:01.326Z,11.70
2023-03-29T19:34:47.638Z,11.80
2023-03-29T19:37:33.764Z,11.80
2023-03-29T19:40:20.124Z,11.80
2023-03-29T19:43:06.872Z,11.70
2023-03-29T19:45:53.117Z,11.60
2023-03-29T19:48:40.183Z,11.60
2023-03-29T19:51:27.445Z,11.60
2023-03-29T19:54:14.147Z,11.50
2023-03-29T19:57:01.731Z,11.50
2023-03-29T19:59:48.143Z,11.60
2023-03-29T20:02:36.144Z,11.60
2023-03-29T20:05:23.963Z,11.60
2023-03-29T20:08:10.376Z,11.60
2023-03-29T20:10:58.516Z,11.60
2023-03-29T20:13:45.336Z,11.50
2023-03-29T20:16:34.560Z,11.50
2023-03-29T20:19:25.187Z,11.40
2023-03-29T20:22:12.220Z,11.30
2023-03-29T20:24:58.135Z,11.10
2023-03-29T20:27:45.340Z,11.00
2023-03-29T20:30:31.331Z,10.90
2023-03-29T20:33:21.598Z,10.90
2023-03-29T20:36:09.287Z,10.90
2023-03-29T20:38:56.386Z,10.90
2023-03-29T20:41:47.661Z,10.90
2023-03-29T20:44:35.335Z,11.00
2023-03-29T20:47:23.696Z,11.10
2023-03-29T20:50:10.594Z,11.10
2023-03-29T20:52:57.570Z,11.20
2023-03-29T20:55:44.125Z,11.20
2023-03-29T20:58:30.574Z,11.20
2023-03-29T21:01:16.521Z,11.20
2023-03-29T21:04:02.800Z,11.20
2023-03-29T21:06:51.616Z,11.20
2023-03-29T21:09:37.946Z,11.20
2023-03-29T21:12:24.251Z,11.20
2023-03-29T21:15:13.344Z,11.20
2023-03-29T21:17:59.444Z,11.20
2023-03-29T21:20:45.768Z,11.20
2023-03-29T21:23:32.184Z,11.30
2023-03-29T21:26:18.304Z,11.30
2023-03-29T21:29:04.613Z,11.30
2023-03-29T21:31:51.097Z,11.40
2023-03-29T21:34:37.346Z,11.40
2023-03-29T21:37:24.198Z,11.40
2023-03-29T21:40:11.319Z,11.30
2023-03-29T21:42:57.707Z,11.30
2023-03-29T21:45:43.795Z,11.30
2023-03-29T21:48:30.662Z,11.40
2023-03-29T21:51:16.601Z,11.30
2023-03-29T21:54:02.490Z,11.30
2023-03-29T21:56:48.532Z,11.40
2023-03-29T21:59:34.566Z,11.40
2023-03-29T22:02:21.482Z,11.40
2023-03-29T22:05:07.993Z,11.50
2023-03-29T22:07:53.804Z,11.50
2023-03-29T22:10:42.861Z,11.50
2023-03-29T22:13:29.221Z,11.40
2023-03-29T22:16:18.340Z,11.40
2023-03-29T22:19:04.740Z,11.40
2023-03-29T22:21:53.047Z,11.30
2023-03-29T22:24:40.338Z,11.30
2023-03-29T22:27:26.403Z,11.40
2023-03-29T22:30:14.096Z,11.40
2023-03-29T22:33:00.288Z,11.50
2023-03-29T22:35:46.302Z,11.50
2023-03-29T22:38:32.309Z,11.60
2023-03-29T22:41:19.881Z,11.60
2023-03-29T22:44:06.195Z,11.60
2023-03-29T22:46:52.295Z,11.60
2023-03-29T22:49:38.697Z,11.60
2023-03-29T22:52:24.814Z,11.70
2023-03-29T22:55:10.671Z,11.80
2023-03-29T22:57:57.259Z,11.80
2023-03-29T23:00:43.648Z,11.90
2023-03-29T23:03:29.679Z,11.90
2023-03-29T23:06:16.303Z,11.90
2023-03-29T23:09:02.457Z,11.90
2023-03-29T23:11:48.406Z,11.90
2023-03-29T23:14:35.478Z,11.90
2023-03-29T23:17:21.912Z,11.90
2023-03-29T23:20:10.736Z,11.90
2023-03-29T23:22:57.151Z,12.00
2023-03-29T23:25:45.735Z,12.00
2023-03-29T23:28:34.271Z,12.00
2023-03-29T23:31:20.886Z,12.10
2023-03-29T23:34:06.836Z,12.10
2023-03-29T23:36:52.789Z,12.10
2023-03-29T23:39:38.886Z,12.10
2023-03-29T23:42:24.596Z,12.10
2023-03-29T23:45:13.297Z,12.20
2023-03-29T23:47:59.594Z,12.10
2023-03-29T23:50:46.340Z,12.10
2023-03-29T23:53:32.373Z,12.10
2023-03-29T23:56:18.363Z,12.10
2023-03-29T23:59:04.568Z,12.10
